Time;durP1;ratioP1;P1;durP2;ratioP2;P2;SDS_P1;SDS_P2;PMS_P1;PMS_P2;Temp;Humidity;BMP_temperature;BMP_pressure;BME280_temperature;BME280_humidity;BME280_pressure;Samples;Min_cycle;Max_cycle;Signal;HPM_P1;HPM_P2
2022/06/14 00:01:34;;;;;;;5.30;1.97;;;;;;;13.69;100.00;102338.53;5035136;28;21364;-74
2022/06/14 00:04:00;;;;;;;6.23;1.80;;;;;;;13.88;100.00;102408.09;5042517;28;20238;-73
2022/06/14 00:06:31;;;;;;;3.53;1.30;;;;;;;13.83;100.00;102409.66;5035761;28;20341;-74
2022/06/14 00:08:57;;;;;;;4.20;1.50;;;;;;;13.63;100.00;102382.41;5035666;28;20446;-74
2022/06/14 00:11:26;;;;;;;5.70;1.53;;;;;;;14.11;100.00;102391.03;5031994;28;20442;-73
2022/06/14 00:13:53;;;;;;;6.50;2.20;;;;;;;13.85;100.00;102389.59;5032948;28;20207;-75
2022/06/14 00:16:21;;;;;;;5.20;1.40;;;;;;;13.92;100.00;102398.66;5036597;28;20465;-74
2022/06/14 00:18:46;;;;;;;4.33;1.20;;;;;;;13.78;100.00;102388.66;5033285;28;20466;-74
2022/06/14 00:21:13;;;;;;;4.80;1.60;;;;;;;13.69;100.00;102385.19;5041525;28;20476;-73
2022/06/14 00:23:38;;;;;;;5.10;1.70;;;;;;;13.45;100.00;102347.63;5039160;28;20621;-74
2022/06/14 00:26:04;;;;;;;5.17;1.50;;;;;;;13.83;100.00;102397.06;5042530;28;20533;-75
2022/06/14 00:28:32;;;;;;;9.17;2.30;;;;;;;13.71;100.00;102364.28;5040541;28;20800;-75
2022/06/14 00:31:02;;;;;;;7.23;2.13;;;;;;;13.82;100.00;102383.72;5036179;28;20194;-75
2022/06/14 00:33:28;;;;;;;4.53;1.37;;;;;;;13.92;100.00;102378.94;5044433;28;20906;-75
2022/06/14 00:36:02;;;;;;;3.03;1.30;;;;;;;13.51;100.00;102350.47;5037967;28;20446;-75
2022/06/14 00:38:28;;;;;;;6.13;1.80;;;;;;;13.47;100.00;102351.00;5032964;28;20456;-75
2022/06/14 00:40:57;;;;;;;6.50;2.27;;;;;;;13.77;100.00;102379.72;5037282;28;20970;-76
2022/06/14 00:43:23;;;;;;;6.63;1.70;;;;;;;13.82;100.00;102378.34;5017944;28;20697;-75
2022/06/14 00:45:52;;;;;;;5.30;1.73;;;;;;;13.81;100.00;102380.19;5037859;28;20434;-75
2022/06/14 00:48:22;;;;;;;5.50;1.67;;;;;;;13.86;100.00;102376.97;5037850;28;21065;-75
2022/06/14 00:50:55;;;;;;;4.97;1.70;;;;;;;13.71;100.00;102388.56;5039636;28;20861;-75
2022/06/14 00:53:26;;;;;;;8.23;1.80;;;;;;;13.77;100.00;102374.34;5041652;28;20458;-75
2022/06/14 00:56:10;;;;;;;4.73;1.67;;;;;;;13.68;100.00;102388.91;5042040;28;20441;-75
2022/06/14 00:58:53;;;;;;;4.07;1.70;;;;;;;13.75;100.00;102389.84;5033543;28;20433;-75
2022/06/14 01:01:24;;;;;;;5.30;1.93;;;;;;;13.59;100.00;102391.84;5037385;28;20949;-75
2022/06/14 01:03:58;;;;;;;3.30;1.30;;;;;;;13.63;100.00;102374.31;5032258;28;20438;-75
2022/06/14 01:06:40;;;;;;;4.43;1.70;;;;;;;13.41;100.00;102389.47;5041339;28;20872;-75
2022/06/14 01:09:32;;;;;;;6.30;2.40;;;;;;;13.51;100.00;102396.31;5029992;28;20448;-75
2022/06/14 01:12:09;;;;;;;4.00;1.57;;;;;;;13.50;100.00;102404.56;5031103;28;20478;-75
2022/06/14 01:14:40;;;;;;;4.57;1.63;;;;;;;13.67;100.00;102381.84;5039668;28;20842;-75
2022/06/14 01:17:08;;;;;;;7.90;1.87;;;;;;;13.18;100.00;102349.00;5038693;28;20462;-75
2022/06/14 01:19:33;;;;;;;3.83;1.40;;;;;;;13.57;100.00;102392.03;5033322;28;20561;-75
2022/06/14 01:22:02;;;;;;;3.77;1.50;;;;;;;13.55;100.00;102388.69;5035322;28;20979;-75
2022/06/14 01:24:28;;;;;;;7.53;1.43;;;;;;;13.14;100.00;102328.84;5032395;28;20292;-75
2022/06/14 01:26:54;;;;;;;8.60;1.60;;;;;;;12.94;100.00;102283.50;5033286;28;20538;-75
2022/06/14 01:29:23;;;;;;;7.27;1.83;;;;;;;13.14;100.00;102364.69;5034891;28;20938;-75
2022/06/14 01:31:52;;;;;;;7.30;1.60;;;;;;;13.48;100.00;102390.41;5029771;28;20442;-75
2022/06/14 01:34:18;;;;;;;6.57;1.83;;;;;;;13.60;100.00;102388.13;5038568;28;20984;-75
2022/06/14 01:36:44;;;;;;;3.37;1.40;;;;;;;13.55;100.00;102381.44;5032485;28;20462;-75
2022/06/14 01:39:13;;;;;;;5.93;1.80;;;;;;;13.55;100.00;102373.34;5037436;28;20969;-75
2022/06/14 01:42:03;;;;;;;4.10;1.80;;;;;;;13.39;100.00;102378.84;5030252;28;20798;-75
2022/06/14 01:45:07;;;;;;;6.00;1.87;;;;;;;13.43;100.00;102376.66;5033806;28;20541;-74
2022/06/14 01:47:46;;;;;;;5.83;2.23;;;;;;;13.49;100.00;102359.75;5035533;28;20457;-74
2022/06/14 01:53:55;;;;;;;7.60;1.60;;;;;;;13.36;100.00;102378.38;5032334;28;20452;-75
2022/06/14 01:56:40;;;;;;;4.43;1.60;;;;;;;13.45;100.00;102377.28;5036353;28;21018;-75
2022/06/14 01:59:29;;;;;;;3.47;1.60;;;;;;;13.44;100.00;102383.72;5030195;28;20530;-75
2022/06/14 02:02:01;;;;;;;4.13;1.73;;;;;;;13.47;100.00;102386.88;5030474;28;20810;-74
2022/06/14 02:04:38;;;;;;;5.63;2.07;;;;;;;13.37;100.00;102378.22;5036565;28;20434;-74
2022/06/14 02:07:08;;;;;;;4.63;1.60;;;;;;;13.22;100.00;102385.34;5040650;28;20480;-73
2022/06/14 02:09:36;;;;;;;5.80;1.87;;;;;;;13.15;100.00;102385.22;5038646;28;20445;-74
2022/06/14 02:12:05;;;;;;;3.40;1.73;;;;;;;13.23;100.00;102387.03;5030869;28;20931;-75
2022/06/14 02:14:41;;;;;;;4.67;1.77;;;;;;;13.11;100.00;102390.13;5030977;28;20438;-74
2022/06/14 02:17:13;;;;;;;5.67;1.60;;;;;;;12.83;100.00;102317.06;5032297;28;20839;-74
2022/06/14 02:19:45;;;;;;;6.03;2.03;;;;;;;13.38;100.00;102374.47;5030128;28;20476;-74
2022/06/14 02:22:18;;;;;;;9.20;2.40;;;;;;;12.74;100.00;102298.47;5034733;28;20556;-74
2022/06/14 02:25:12;;;;;;;5.87;1.50;;;;;;;13.15;100.00;102379.84;5030968;28;20452;-74
2022/06/14 02:27:40;;;;;;;4.90;1.63;;;;;;;13.31;100.00;102379.75;5029834;28;20506;-74
2022/06/14 02:30:11;;;;;;;4.00;1.40;;;;;;;13.18;100.00;102378.63;5032693;28;20438;-74
2022/06/14 02:32:52;;;;;;;4.50;1.63;;;;;;;13.38;100.00;102374.47;5033552;28;20520;-72
2022/06/14 02:35:24;;;;;;;5.80;2.00;;;;;;;13.46;100.00;102376.28;5034402;28;20454;-72
2022/06/14 02:38:03;;;;;;;3.10;1.50;;;;;;;13.06;100.00;102341.34;5027669;28;20465;-72
2022/06/14 02:40:35;;;;;;;3.73;1.80;;;;;;;13.10;100.00;102356.13;5032770;28;20469;-71
2022/06/14 02:43:08;;;;;;;6.67;2.30;;;;;;;13.25;100.00;102376.91;5030100;28;20444;-72
2022/06/14 02:45:41;;;;;;;4.03;1.40;;;;;;;13.27;100.00;102342.56;5030809;28;20441;-72
2022/06/14 02:48:15;;;;;;;7.10;2.20;;;;;;;13.33;100.00;102366.09;5032447;28;20505;-71
2022/06/14 02:50:43;;;;;;;5.93;1.83;;;;;;;12.70;100.00;102257.59;5013866;28;20795;-72
2022/06/14 02:53:20;;;;;;;6.53;1.63;;;;;;;13.12;100.00;102318.22;5032436;28;20431;-72
2022/06/14 02:55:59;;;;;;;6.70;2.40;;;;;;;13.49;100.00;102359.75;5030517;28;21016;-72
2022/06/14 02:58:44;;;;;;;7.63;1.80;;;;;;;13.24;100.00;102318.66;5031552;28;20449;-72
2022/06/14 03:01:12;;;;;;;5.83;1.63;;;;;;;13.49;100.00;102360.59;5035240;28;20937;-72
2022/06/14 03:03:44;;;;;;;8.40;2.23;;;;;;;13.30;100.00;102364.59;5031234;28;20529;-72
2022/06/14 03:06:34;;;;;;;5.60;1.70;;;;;;;13.47;100.00;102367.19;5032032;28;20470;-72
2022/06/14 03:09:05;;;;;;;4.83;2.07;;;;;;;13.21;100.00;102357.56;5031112;28;21107;-72
2022/06/14 03:11:46;;;;;;;7.40;2.00;;;;;;;13.02;100.00;102305.00;5041192;28;20437;-72
2022/06/14 03:14:12;;;;;;;7.03;2.30;;;;;;;13.33;100.00;102363.41;5029981;28;20443;-72
2022/06/14 03:17:08;;;;;;;5.80;1.80;;;;;;;13.46;100.00;102360.13;5035211;28;20466;-72
2022/06/14 03:19:43;;;;;;;8.33;2.00;;;;;;;13.44;100.00;102354.91;5028978;28;20556;-72
2022/06/14 03:22:18;;;;;;;3.30;1.13;;;;;;;13.53;100.00;102351.09;5033624;28;20901;-72
2022/06/14 03:24:52;;;;;;;6.57;2.00;;;;;;;13.33;100.00;102363.41;5030046;28;20515;-72
2022/06/14 03:27:46;;;;;;;4.47;1.90;;;;;;;13.15;100.00;102370.91;5025012;28;20847;-72
2022/06/14 03:30:32;;;;;;;4.27;1.43;;;;;;;13.22;100.00;102372.72;5031058;28;20430;-73
2022/06/14 03:33:15;;;;;;;7.80;1.93;;;;;;;13.32;100.00;102372.50;5031372;28;20446;-73
2022/06/14 03:35:50;;;;;;;5.93;1.87;;;;;;;13.44;100.00;102370.22;5013290;28;20441;-73
2022/06/14 03:38:32;;;;;;;6.57;2.10;;;;;;;13.52;100.00;102367.47;5030341;28;20500;-73
2022/06/14 03:40:58;;;;;;;4.83;1.97;;;;;;;13.28;100.00;102382.00;5027976;28;22157;-73
2022/06/14 03:43:24;;;;;;;6.60;1.90;;;;;;;13.29;100.00;102381.78;5031111;28;20946;-73
2022/06/14 03:46:06;;;;;;;4.67;1.77;;;;;;;13.08;100.00;102349.25;5032990;28;20445;-73
2022/06/14 03:48:36;;;;;;;6.50;2.03;;;;;;;13.38;100.00;102379.88;5029534;28;20437;-73
2022/06/14 03:51:09;;;;;;;4.40;1.90;;;;;;;13.34;100.00;102386.66;5031355;28;20491;-73
2022/06/14 03:53:59;;;;;;;8.00;2.70;;;;;;;13.11;100.00;102357.81;5029069;28;20430;-73
2022/06/14 03:56:53;;;;;;;6.53;1.80;;;;;;;13.25;100.00;102379.59;5030065;28;20470;-73
2022/06/14 03:59:31;;;;;;;3.53;1.50;;;;;;;13.20;100.00;102382.00;5025967;28;20473;-73
2022/06/14 04:02:54;;;;;;;6.33;1.83;;;;;;;13.11;100.00;102384.75;5035527;28;20474;-73
2022/06/14 04:05:32;;;;;;;5.40;1.77;;;;;;;13.21;100.00;102384.50;5028151;28;20528;-73
2022/06/14 04:08:26;;;;;;;4.10;1.90;;;;;;;13.38;100.00;102376.34;5030816;28;20478;-73
2022/06/14 04:11:08;;;;;;;4.43;1.70;;;;;;;13.22;100.00;102351.19;5034183;28;20524;-74
2022/06/14 04:13:44;;;;;;;5.77;2.10;;;;;;;13.25;100.00;102383.19;5032660;28;20453;-73
2022/06/14 04:16:34;;;;;;;3.63;1.43;;;;;;;13.32;100.00;102386.81;5035218;28;20862;-73
2022/06/14 04:19:22;;;;;;;4.27;1.67;;;;;;;13.34;100.00;102383.97;5035645;28;20433;-73
2022/06/14 04:22:11;;;;;;;6.77;1.87;;;;;;;13.41;100.00;102373.28;5040196;28;20442;-73
2022/06/14 04:24:55;;;;;;;6.57;1.90;;;;;;;13.50;100.00;102380.28;5041953;28;20897;-73
2022/06/14 04:27:43;;;;;;;5.60;2.07;;;;;;;13.38;100.00;102377.19;5037597;28;20489;-74
2022/06/14 04:30:12;;;;;;;5.83;1.70;;;;;;;13.45;100.00;102379.97;5036560;28;20438;-74
2022/06/14 04:32:57;;;;;;;5.40;1.97;;;;;;;13.36;100.00;102372.97;5043081;28;20521;-74
2022/06/14 04:35:31;;;;;;;7.30;2.00;;;;;;;13.36;100.00;102378.38;5038091;28;20445;-74
2022/06/14 04:38:08;;;;;;;8.07;2.13;;;;;;;13.45;100.00;102379.97;5044070;28;20461;-74
2022/06/14 04:41:00;;;;;;;9.27;2.47;;;;;;;13.27;100.00;102378.44;5045597;28;20553;-74
2022/06/14 04:43:46;;;;;;;3.20;1.40;;;;;;;13.27;100.00;102381.13;5037574;28;20533;-74
2022/06/14 04:46:16;;;;;;;4.77;1.77;;;;;;;13.28;100.00;102387.38;5035732;28;20426;-73
2022/06/14 04:48:49;;;;;;;5.50;2.50;;;;;;;13.36;100.00;102386.47;5034614;28;20503;-74
2022/06/14 04:51:46;;;;;;;6.10;1.57;;;;;;;13.25;100.00;102390.38;5015998;28;20518;-73
2022/06/14 04:54:21;;;;;;;5.70;2.20;;;;;;;13.38;100.00;102395.22;5035651;28;20477;-73
2022/06/14 04:57:12;;;;;;;10.90;1.93;;;;;;;13.30;100.00;102396.94;5032198;28;20473;-73
2022/06/14 04:59:55;;;;;;;5.37;2.10;;;;;;;13.27;100.00;102375.72;5028174;28;21259;-74
2022/06/14 05:02:29;;;;;;;4.50;1.57;;;;;;;12.81;100.00;102292.16;5012514;28;20460;-73
2022/06/14 05:04:59;;;;;;;6.37;1.60;;;;;;;13.30;100.00;102399.63;5032942;28;20823;-73
2022/06/14 05:07:34;;;;;;;4.07;1.40;;;;;;;13.49;100.00;102400.19;5033587;28;20476;-73
2022/06/14 05:10:15;;;;;;;5.83;2.00;;;;;;;13.36;100.00;102399.94;5012833;28;20438;-74
2022/06/14 05:12:55;;;;;;;6.47;1.90;;;;;;;13.42;100.00;102397.34;5034038;28;20433;-73
2022/06/14 05:15:47;;;;;;;5.53;1.80;;;;;;;13.02;100.00;102326.56;5034603;28;20524;-73
2022/06/14 05:18:22;;;;;;;5.30;2.37;;;;;;;13.70;100.00;102394.94;5015300;28;20539;-73
2022/06/14 05:21:21;;;;;;;7.80;1.93;;;;;;;13.60;100.00;102402.47;5039015;28;21290;-73
2022/06/14 05:23:50;;;;;;;5.67;2.20;;;;;;;13.63;100.00;102380.53;5038656;28;20456;-73
2022/06/14 05:26:51;;;;;;;6.20;1.83;;;;;;;13.59;100.00;102402.63;5037072;28;20461;-74
2022/06/14 05:29:25;;;;;;;5.20;1.57;;;;;;;13.78;100.00;102396.75;5032831;28;20431;-74
2022/06/14 05:32:28;;;;;;;6.90;2.13;;;;;;;13.60;100.00;102404.28;5036592;28;20425;-74
2022/06/14 05:35:06;;;;;;;3.13;1.40;;;;;;;13.82;100.00;102397.22;5028159;28;21016;-74
2022/06/14 05:38:08;;;;;;;6.47;1.77;;;;;;;13.73;100.00;102409.94;5036234;28;20537;-74
2022/06/14 05:40:45;;;;;;;6.20;1.80;;;;;;;13.79;100.00;102404.63;5041036;28;20465;-74
2022/06/14 05:43:26;;;;;;;6.70;1.80;;;;;;;13.69;100.00;102406.75;5038104;28;20453;-74
2022/06/14 05:45:59;;;;;;;7.17;2.80;;;;;;;13.89;100.00;102398.19;5031592;28;20435;-74
2022/06/14 05:48:30;;;;;;;10.37;2.80;;;;;;;13.74;100.00;102398.97;5031320;28;20447;-74
2022/06/14 05:50:59;;;;;;;6.47;1.70;;;;;;;13.73;100.00;102380.28;5034419;28;20434;-74
2022/06/14 05:53:57;;;;;;;3.90;1.67;;;;;;;13.49;100.00;102340.88;5037836;28;20899;-74
2022/06/14 05:56:32;;;;;;;9.47;2.33;;;;;;;13.69;100.00;102379.81;5030973;28;20466;-74
2022/06/14 05:59:24;;;;;;;7.87;1.97;;;;;;;14.06;100.00;102405.09;5033738;28;20445;-74
2022/06/14 06:02:00;;;;;;;4.73;2.00;;;;;;;14.03;100.00;102413.56;5014225;28;21725;-74
2022/06/14 06:05:09;;;;;;;5.80;2.37;;;;;;;14.03;100.00;102394.69;5030384;28;20487;-74
2022/06/14 06:07:41;;;;;;;3.90;1.27;;;;;;;13.99;100.00;102380.69;4983137;28;20561;-74
2022/06/14 06:10:23;;;;;;;5.47;1.50;;;;;;;14.06;100.00;102386.22;5030290;28;20456;-73
2022/06/14 06:12:55;;;;;;;5.33;1.90;;;;;;;14.17;100.00;102396.53;5037659;28;20465;-74
2022/06/14 06:15:32;;;;;;;4.60;1.93;;;;;;;14.23;100.00;102395.81;5033840;28;20442;-74
2022/06/14 06:18:08;;;;;;;4.50;2.00;;;;;;;14.37;100.00;102412.19;5036808;28;20515;-73
2022/06/14 06:21:05;;;;;;;7.33;1.60;;;;;;;14.47;100.00;102405.50;5031869;28;20572;-73
2022/06/14 06:23:49;;;;;;;4.20;1.77;;;;;;;14.23;100.00;102362.56;5034737;28;20478;-70
2022/06/14 06:26:19;;;;;;;8.60;1.70;;;;;;;14.42;100.00;102390.88;5036875;28;20457;-71
2022/06/14 06:28:54;;;;;;;5.80;1.73;;;;;;;14.21;100.00;102384.34;5037815;28;20469;-71
2022/06/14 06:31:30;;;;;;;6.50;1.93;;;;;;;14.05;100.00;102360.22;5033513;28;20445;-70
2022/06/14 06:33:57;;;;;;;3.73;1.30;;;;;;;13.01;100.00;102171.34;5048058;22;20461;-68
2022/06/14 06:36:41;;;;;;;7.57;1.60;;;;;;;14.33;100.00;102400.91;5051879;28;20979;-71
2022/06/14 06:39:24;;;;;;;7.80;1.70;;;;;;;14.48;100.00;102415.25;5060190;28;20437;-71
2022/06/14 06:41:56;;;;;;;6.83;2.33;;;;;;;14.07;100.00;102369.00;5057310;28;20429;-71
2022/06/14 06:44:33;;;;;;;7.23;1.40;;;;;;;14.57;100.00;102410.63;5056914;28;20466;-71
2022/06/14 06:47:20;;;;;;;4.50;1.47;;;;;;;14.60;100.00;102418.34;5032471;28;20442;-71
2022/06/14 06:49:57;;;;;;;5.40;1.60;;;;;;;14.53;100.00;102384.22;5036036;28;20430;-71
2022/06/14 06:52:33;;;;;;;5.00;1.30;;;;;;;14.52;100.00;102390.59;5030448;28;20442;-72
2022/06/14 06:55:06;;;;;;;3.90;1.23;;;;;;;14.81;100.00;102414.03;5031974;28;20552;-71
2022/06/14 06:57:35;;;;;;;3.57;1.90;;;;;;;14.67;100.00;102403.09;5033815;28;20442;-71
2022/06/14 07:00:04;;;;;;;5.03;1.37;;;;;;;14.58;100.00;102406.06;5033330;28;20558;-71
2022/06/14 07:02:41;;;;;;;3.03;1.50;;;;;;;14.66;100.00;102389.75;5022952;28;20442;-71
2022/06/14 07:05:14;;;;;;;5.57;1.50;;;;;;;14.64;100.00;102398.06;5030043;28;20465;-72
2022/06/14 07:07:55;;;;;;;5.67;2.13;;;;;;;14.99;100.00;102430.72;5033508;28;20437;-72
2022/06/14 07:10:30;;;;;;;4.73;1.80;;;;;;;15.02;100.00;102424.09;5035722;28;20445;-72
2022/06/14 07:13:09;;;;;;;5.37;1.77;;;;;;;15.01;100.00;102430.50;5032701;28;20438;-72
2022/06/14 07:15:43;;;;;;;2.93;1.30;;;;;;;14.96;100.00;102417.59;5031576;28;20556;-72
2022/06/14 07:18:21;;;;;;;5.80;1.60;;;;;;;14.86;100.00;102411.63;5034964;28;20444;-71
2022/06/14 07:21:08;;;;;;;3.80;1.30;;;;;;;14.45;100.00;102340.03;5033480;28;20473;-71
2022/06/14 07:23:43;;;;;;;2.30;1.00;;;;;;;15.00;100.00;102424.28;5033338;28;20655;-72
2022/06/14 07:26:16;;;;;;;3.77;1.20;;;;;;;14.99;100.00;102416.38;5007990;28;20973;-72
2022/06/14 07:28:51;;;;;;;6.00;1.70;;;;;;;15.18;100.00;102425.72;5035586;28;20438;-74
2022/06/14 07:31:26;;;;;;;3.23;1.60;;;;;;;14.70;100.00;102358.66;5032274;28;20509;-72
2022/06/14 07:33:52;;;;;;;4.13;1.67;;;;;;;15.01;100.00;102414.28;5032759;28;20457;-72
2022/06/14 07:36:45;;;;;;;4.47;1.37;;;;;;;15.15;100.00;102429.63;5031248;28;20569;-72
2022/06/14 07:39:25;;;;;;;2.07;0.97;;;;;;;15.23;100.00;102434.09;5037537;28;21046;-73
2022/06/14 07:42:02;;;;;;;5.30;2.60;;;;;;;15.28;100.00;102434.38;5036256;28;20456;-72
2022/06/14 07:44:41;;;;;;;3.50;1.10;;;;;;;15.03;100.00;102383.34;5037440;28;20450;-73
2022/06/14 07:47:16;;;;;;;2.90;1.10;;;;;;;15.30;100.00;102432.28;5035761;28;20591;-73
2022/06/14 07:49:50;;;;;;;5.10;1.17;;;;;;;15.26;100.00;102431.00;5040411;28;20481;-72
2022/06/14 07:52:30;;;;;;;3.33;1.43;;;;;;;15.09;100.00;102387.16;5032383;28;20438;-72
2022/06/14 07:55:14;;;;;;;6.50;1.30;;;;;;;15.41;100.00;102429.09;5036113;28;20458;-72
2022/06/14 07:57:44;;;;;;;11.87;1.67;;;;;;;15.30;100.00;102427.75;5029759;28;20438;-72
2022/06/14 08:03:10;;;;;;;2.43;1.10;;;;;;;15.43;100.00;102413.53;5036828;28;20551;-72
2022/06/14 08:05:41;;;;;;;3.90;1.90;;;;;;;15.24;100.00;102389.81;5032876;28;20544;-72
2022/06/14 08:08:11;;;;;;;8.13;1.80;;;;;;;15.21;100.00;102372.09;5030107;28;20434;-73
2022/06/14 08:10:44;;;;;;;3.73;1.40;;;;;;;14.34;100.00;102235.25;5031031;28;20438;-74
2022/06/14 08:13:16;;;;;;;3.13;1.47;;;;;;;15.61;100.00;102415.78;5036521;28;20446;-73
2022/06/14 08:15:51;;;;;;;4.17;1.17;;;;;;;14.97;100.00;102321.16;5033730;28;20486;-73
2022/06/14 08:18:30;;;;;;;2.70;1.30;;;;;;;15.53;100.00;102400.50;5035814;28;20941;-73
2022/06/14 08:20:59;;;;;;;2.50;1.10;;;;;;;15.62;100.00;102417.44;5033933;28;21406;-73
2022/06/14 08:23:40;;;;;;;;;;;;;;;15.70;100.00;102421.91;5032813;28;20499;-74
2022/06/14 08:26:24;;;;;;;7.53;2.17;;;;;;;15.67;100.00;102419.56;5012193;28;20483;-72
2022/06/14 08:29:13;;;;;;;3.20;1.23;;;;;;;15.76;100.00;102415.72;5035105;28;21048;-73
2022/06/14 08:31:49;;;;;;;2.90;1.23;;;;;;;15.90;100.00;102414.81;5022175;28;20453;-73
2022/06/14 08:34:25;;;;;;;3.03;1.67;;;;;;;15.44;100.00;102384.59;5036910;28;20465;-72
2022/06/14 08:37:21;;;;;;;2.77;1.00;;;;;;;15.78;100.00;102428.03;5037714;28;20469;-72
2022/06/14 08:39:54;;;;;;;3.67;1.60;;;;;;;15.77;100.00;102428.25;5037267;28;20535;-72
2022/06/14 08:42:27;;;;;;;3.40;1.37;;;;;;;15.76;100.00;102423.84;5038880;28;20435;-73
2022/06/14 08:45:03;;;;;;;1.83;1.20;;;;;;;15.94;100.00;102421.50;5039020;28;20488;-72
2022/06/14 08:48:03;;;;;;;4.30;1.13;;;;;;;15.96;100.00;102419.44;5041103;28;20478;-73
2022/06/14 08:50:35;;;;;;;3.80;1.50;;;;;;;15.80;100.00;102403.50;5025510;28;20445;-72
2022/06/14 08:53:09;;;;;;;3.73;0.97;;;;;;;16.00;100.00;102412.59;5035876;28;20449;-73
2022/06/14 08:55:53;;;;;;;2.83;1.07;;;;;;;16.07;100.00;102417.22;5035307;28;20507;-72
2022/06/14 08:58:56;;;;;;;3.17;1.20;;;;;;;16.19;100.00;102427.31;5038215;28;20951;-72
2022/06/14 09:01:55;;;;;;;2.23;1.03;;;;;;;16.07;100.00;102379.34;5033939;28;20796;-73
2022/06/14 09:04:48;;;;;;;5.63;1.17;;;;;;;16.16;100.00;102416.88;5032486;28;20510;-73
2022/06/14 09:07:31;;;;;;;3.83;1.20;;;;;;;16.12;100.00;102422.91;5020781;28;21406;-73
2022/06/14 09:10:27;;;;;;;4.47;1.33;;;;;;;16.07;100.00;102414.53;5025824;28;21045;-72
2022/06/14 09:13:17;;;;;;;3.40;1.10;;;;;;;15.97;100.00;102413.00;5033330;28;20457;-71
2022/06/14 09:15:54;;;;;;;1.90;0.97;;;;;;;16.20;100.00;102417.31;5026804;28;20539;-73
2022/06/14 09:18:43;;;;;;;3.83;1.10;;;;;;;16.16;100.00;102418.75;5014385;28;20445;-72
2022/06/14 09:21:09;;;;;;;4.03;1.00;;;;;;;16.16;100.00;102416.03;5030087;28;20470;-72
2022/06/14 09:23:40;;;;;;;2.60;0.87;;;;;;;16.11;100.00;102415.78;5026568;28;20554;-72
2022/06/14 09:26:29;;;;;;;2.50;0.87;;;;;;;16.24;100.00;102419.44;5031981;28;20418;-72
2022/06/14 09:29:13;;;;;;;4.57;1.00;;;;;;;16.59;100.00;102419.44;5027317;28;20434;-72
2022/06/14 09:31:57;;;;;;;2.00;1.17;;;;;;;16.56;100.00;102419.00;5026805;28;20814;-73
2022/06/14 09:35:01;;;;;;;2.10;1.10;;;;;;;16.56;100.00;102417.13;5036839;28;20476;-72
2022/06/14 09:37:59;;;;;;;3.00;1.40;;;;;;;16.57;100.00;102421.50;5036444;28;20430;-72
2022/06/14 09:40:48;;;;;;;1.53;1.10;;;;;;;16.32;100.00;102391.38;5027509;28;20771;-72
2022/06/14 09:43:19;;;;;;;1.97;0.90;;;;;;;16.51;100.00;102422.28;5032768;28;20444;-72
2022/06/14 09:46:22;;;;;;;5.17;1.27;;;;;;;16.77;100.00;102421.63;5037827;28;20450;-72
2022/06/14 09:49:31;;;;;;;2.80;1.17;;;;;;;16.77;100.00;102412.66;5032932;28;20956;-72
2022/06/14 09:52:10;;;;;;;3.43;1.23;;;;;;;16.69;100.00;102378.41;5024367;28;21413;-72
2022/06/14 09:54:38;;;;;;;7.07;1.30;;;;;;;16.90;100.00;102421.69;5029029;28;20463;-73
2022/06/14 09:57:32;;;;;;;3.13;0.80;;;;;;;16.69;100.00;102416.34;5026015;28;20438;-73
2022/06/14 10:00:13;;;;;;;2.00;1.00;;;;;;;16.82;100.00;102418.31;5026150;28;20467;-72
2022/06/14 10:02:51;;;;;;;2.47;1.13;;;;;;;16.84;100.00;102421.69;5028229;28;26895;-72
2022/06/14 10:05:41;;;;;;;1.20;0.80;;;;;;;16.86;100.00;102414.16;5012523;28;20461;-73
2022/06/14 10:08:30;;;;;;;2.40;0.70;;;;;;;17.13;100.00;102415.13;5034689;28;20429;-73
2022/06/14 10:11:21;;;;;;;2.67;1.10;;;;;;;17.00;100.00;102420.47;5037894;28;20433;-73
2022/06/14 10:14:05;;;;;;;2.43;0.80;;;;;;;17.00;100.00;102420.47;5035824;28;20516;-73
2022/06/14 10:16:30;;;;;;;3.53;1.30;;;;;;;16.97;100.00;102415.47;5039239;28;20870;-73
2022/06/14 10:19:01;;;;;;;2.40;1.10;;;;;;;16.80;100.00;102404.13;5041936;28;20532;-73
2022/06/14 10:21:43;;;;;;;2.47;1.03;;;;;;;16.76;100.00;102384.75;5045017;28;20209;-73
2022/06/14 10:24:17;;;;;;;2.37;1.30;;;;;;;16.89;100.00;102413.75;5041778;28;20458;-72
2022/06/14 10:30:02;;;;;;;1.40;0.63;;;;;;;17.40;100.00;102408.69;5042543;28;20434;-72
2022/06/14 10:32:43;;;;;;;2.77;0.87;;;;;;;17.28;100.00;102404.09;5045039;28;20433;-73
2022/06/14 10:35:20;;;;;;;5.23;1.83;;;;;;;16.99;100.00;102407.97;5039798;28;20462;-72
2022/06/14 10:38:04;;;;;;;3.20;1.10;;;;;;;17.06;100.00;102408.81;5043260;28;20442;-72
2022/06/14 10:40:38;;;;;;;2.30;1.10;;;;;;;17.19;100.00;102406.16;5041233;28;20939;-73
2022/06/14 10:43:12;;;;;;;2.90;1.03;;;;;;;17.05;100.00;102404.44;5041814;28;20914;-74
2022/06/14 10:45:54;;;;;;;2.57;1.17;;;;;;;17.04;100.00;102379.22;5043309;28;21062;-73
2022/06/14 10:48:41;;;;;;;1.90;0.87;;;;;;;17.28;100.00;102398.66;5042643;28;20444;-73
2022/06/14 10:51:15;;;;;;;1.27;0.93;;;;;;;17.39;100.00;102400.78;5042950;28;20417;-73
2022/06/14 10:53:50;;;;;;;4.20;1.20;;;;;;;17.33;100.00;102396.19;5022511;28;20525;-73
2022/06/14 10:56:31;;;;;;;4.87;1.27;;;;;;;17.42;100.00;102402.25;5041576;28;20504;-73
2022/06/14 10:59:34;;;;;;;2.17;0.97;;;;;;;17.28;100.00;102395.97;5041517;28;20418;-73
2022/06/14 11:02:41;;;;;;;1.63;0.70;;;;;;;17.19;100.00;102402.63;5044285;28;20453;-73
2022/06/14 11:05:31;;;;;;;4.43;0.90;;;;;;;17.38;100.00;102389.06;5039042;28;20446;-73
2022/06/14 11:08:00;;;;;;;2.80;1.00;;;;;;;17.33;100.00;102398.91;5041274;28;20427;-72
2022/06/14 11:10:40;;;;;;;2.67;0.93;;;;;;;17.52;100.00;102389.09;5031232;28;20478;-73
2022/06/14 11:13:47;;;;;;;1.30;0.90;;;;;;;17.67;100.00;102391.59;5025285;28;20437;-73
2022/06/14 11:16:33;;;;;;;4.30;0.90;;;;;;;17.49;100.00;102389.50;5043419;28;20434;-72
2022/06/14 11:22:11;;;;;;;1.37;0.80;;;;;;;17.68;100.00;102377.84;5043165;28;20445;-71
2022/06/14 11:24:54;;;;;;;1.83;0.90;;;;;;;17.61;100.00;102377.00;5046179;28;20455;-72
2022/06/14 11:27:40;;;;;;;2.57;0.93;;;;;;;17.59;100.00;102336.53;5042714;28;20447;-72
2022/06/14 11:30:23;;;;;;;3.07;0.80;;;;;;;17.83;100.00;102362.22;5046245;28;20454;-72
2022/06/14 11:33:04;;;;;;;1.83;0.90;;;;;;;17.58;100.00;102304.16;5045640;28;20918;-72
2022/06/14 11:35:55;;;;;;;2.37;1.27;;;;;;;17.86;100.00;102341.13;5044438;28;20465;-72
2022/06/14 11:38:44;;;;;;;1.27;0.80;;;;;;;17.91;100.00;102363.06;5044904;28;20440;-72
2022/06/14 11:41:11;;;;;;;1.63;1.00;;;;;;;17.03;100.00;102219.47;5040035;28;20474;-72
2022/06/14 11:43:58;;;;;;;2.30;1.30;;;;;;;17.77;100.00;102363.03;5042643;28;20438;-73
2022/06/14 11:47:02;;;;;;;1.90;0.70;;;;;;;17.71;100.00;102357.59;5042170;28;20819;-72
2022/06/14 11:49:42;;;;;;;2.00;0.87;;;;;;;17.55;100.00;102329.81;4959934;28;20484;-72
2022/06/14 11:52:29;;;;;;;2.73;1.10;;;;;;;17.59;100.00;102351.97;4957786;28;20448;-72
2022/06/14 11:55:11;;;;;;;2.37;1.17;;;;;;;17.73;100.00;102363.63;5018436;28;21114;-72
2022/06/14 11:57:51;;;;;;;1.60;0.97;;;;;;;17.63;100.00;102329.63;5045728;28;20430;-72
2022/06/14 12:00:28;;;;;;;3.60;1.10;;;;;;;17.74;100.00;102357.19;5046466;28;21453;-72
2022/06/14 12:03:14;;;;;;;3.57;1.30;;;;;;;17.64;100.00;102357.59;5042889;28;20426;-71
2022/06/14 12:06:02;;;;;;;1.63;0.80;;;;;;;17.60;100.00;102362.59;5041295;28;20460;-71
2022/06/14 12:09:04;;;;;;;2.53;1.00;;;;;;;17.61;100.00;102353.41;5040573;28;20482;-71
2022/06/14 12:11:39;;;;;;;2.30;0.97;;;;;;;17.55;100.00;102356.97;5031342;28;20434;-71
2022/06/14 12:14:23;;;;;;;1.33;0.80;;;;;;;17.54;100.00;102347.16;5033562;28;20549;-71
2022/06/14 12:17:19;;;;;;;2.40;1.00;;;;;;;17.57;100.00;102346.75;5023832;28;20476;-70
2022/06/14 12:19:53;;;;;;;1.87;1.10;;;;;;;17.61;100.00;102358.00;5037891;28;20484;-70
2022/06/14 12:22:28;;;;;;;1.93;1.17;;;;;;;17.25;100.00;102310.44;5040803;28;20430;-70
2022/06/14 12:27:45;;;;;;;1.33;0.93;;;;;;;17.00;100.00;102284.94;5044504;28;20956;-70